sensor_id;sensor_type;location;lat;lon;timestamp;P1;durP1;ratioP1;P2;durP2;ratioP2
211;SDS011;16228;48.800;9.002;2023-02-22T00:00:18;14.50;;;13.10;;
211;SDS011;16228;48.800;9.002;2023-02-22T00:02:54;18.07;;;14.07;;
211;SDS011;16228;48.800;9.002;2023-02-22T00:05:24;12.27;;;11.20;;
211;SDS011;16228;48.800;9.002;2023-02-22T00:07:53;16.30;;;15.10;;
211;SDS011;16228;48.800;9.002;2023-02-22T00:10:23;16.07;;;13.30;;
211;SDS011;16228;48.800;9.002;2023-02-22T00:12:51;16.40;;;14.33;;
211;SDS011;16228;48.800;9.002;2023-02-22T00:15:19;13.90;;;12.63;;
211;SDS011;16228;48.800;9.002;2023-02-22T00:17:47;14.63;;;13.40;;
211;SDS011;16228;48.800;9.002;2023-02-22T00:20:15;16.73;;;15.27;;
211;SDS011;16228;48.800;9.002;2023-02-22T00:22:44;14.97;;;13.77;;
211;SDS011;16228;48.800;9.002;2023-02-22T00:25:13;12.47;;;11.47;;
211;SDS011;16228;48.800;9.002;2023-02-22T00:27:44;17.17;;;15.30;;
211;SDS011;16228;48.800;9.002;2023-02-22T00:30:13;15.50;;;13.30;;
211;SDS011;16228;48.800;9.002;2023-02-22T00:32:43;13.10;;;12.00;;
211;SDS011;16228;48.800;9.002;2023-02-22T00:35:11;13.80;;;12.57;;
211;SDS011;16228;48.800;9.002;2023-02-22T00:37:38;13.73;;;12.63;;
211;SDS011;16228;48.800;9.002;2023-02-22T00:40:07;15.57;;;14.17;;
211;SDS011;16228;48.800;9.002;2023-02-22T00:42:35;13.83;;;12.63;;
211;SDS011;16228;48.800;9.002;2023-02-22T00:45:04;13.90;;;12.80;;
211;SDS011;16228;48.800;9.002;2023-02-22T00:47:32;14.63;;;13.13;;
211;SDS011;16228;48.800;9.002;2023-02-22T00:49:59;12.87;;;11.07;;
211;SDS011;16228;48.800;9.002;2023-02-22T00:52:27;12.13;;;11.10;;
211;SDS011;16228;48.800;9.002;2023-02-22T00:54:54;14.40;;;13.20;;
211;SDS011;16228;48.800;9.002;2023-02-22T00:57:22;14.13;;;12.93;;
211;SDS011;16228;48.800;9.002;2023-02-22T00:59:50;15.50;;;14.30;;
211;SDS011;16228;48.800;9.002;2023-02-22T01:02:18;14.63;;;13.33;;
211;SDS011;16228;48.800;9.002;2023-02-22T01:04:46;15.00;;;13.67;;
211;SDS011;16228;48.800;9.002;2023-02-22T01:07:13;16.17;;;14.70;;
211;SDS011;16228;48.800;9.002;2023-02-22T01:09:40;16.20;;;14.80;;
211;SDS011;16228;48.800;9.002;2023-02-22T01:12:08;14.67;;;13.40;;
211;SDS011;16228;48.800;9.002;2023-02-22T01:14:37;14.83;;;12.27;;
211;SDS011;16228;48.800;9.002;2023-02-22T01:17:04;15.17;;;13.40;;
211;SDS011;16228;48.800;9.002;2023-02-22T01:19:33;12.67;;;11.57;;
211;SDS011;16228;48.800;9.002;2023-02-22T01:22:00;11.47;;;10.37;;
211;SDS011;16228;48.800;9.002;2023-02-22T01:24:29;13.60;;;12.20;;
211;SDS011;16228;48.800;9.002;2023-02-22T01:26:56;13.03;;;11.90;;
211;SDS011;16228;48.800;9.002;2023-02-22T01:29:23;15.50;;;14.20;;
211;SDS011;16228;48.800;9.002;2023-02-22T01:31:51;12.97;;;11.70;;
211;SDS011;16228;48.800;9.002;2023-02-22T01:34:21;11.57;;;10.40;;
211;SDS011;16228;48.800;9.002;2023-02-22T01:36:51;12.57;;;10.73;;
211;SDS011;16228;48.800;9.002;2023-02-22T01:39:18;13.63;;;11.73;;
211;SDS011;16228;48.800;9.002;2023-02-22T01:41:45;15.57;;;13.97;;
211;SDS011;16228;48.800;9.002;2023-02-22T01:44:20;15.13;;;13.73;;
211;SDS011;16228;48.800;9.002;2023-02-22T01:46:52;12.63;;;10.50;;
211;SDS011;16228;48.800;9.002;2023-02-22T01:49:19;16.83;;;13.77;;
211;SDS011;16228;48.800;9.002;2023-02-22T01:51:49;15.20;;;13.97;;
211;SDS011;16228;48.800;9.002;2023-02-22T01:54:20;13.20;;;11.93;;
211;SDS011;16228;48.800;9.002;2023-02-22T01:56:52;12.87;;;11.80;;
211;SDS011;16228;48.800;9.002;2023-02-22T01:59:25;14.30;;;13.03;;
211;SDS011;16228;48.800;9.002;2023-02-22T02:01:57;12.10;;;10.90;;
211;SDS011;16228;48.800;9.002;2023-02-22T02:04:25;16.17;;;11.57;;
211;SDS011;16228;48.800;9.002;2023-02-22T02:06:56;14.47;;;11.93;;
211;SDS011;16228;48.800;9.002;2023-02-22T02:09:26;14.73;;;11.50;;
211;SDS011;16228;48.800;9.002;2023-02-22T02:11:58;11.73;;;10.67;;
211;SDS011;16228;48.800;9.002;2023-02-22T02:14:27;14.07;;;11.70;;
211;SDS011;16228;48.800;9.002;2023-02-22T02:16:56;12.37;;;11.17;;
211;SDS011;16228;48.800;9.002;2023-02-22T02:19:32;12.37;;;10.87;;
211;SDS011;16228;48.800;9.002;2023-02-22T02:22:27;13.03;;;11.70;;
211;SDS011;16228;48.800;9.002;2023-02-22T02:25:25;11.60;;;10.53;;
211;SDS011;16228;48.800;9.002;2023-02-22T02:28:16;11.93;;;10.63;;
211;SDS011;16228;48.800;9.002;2023-02-22T02:31:33;12.87;;;11.63;;
211;SDS011;16228;48.800;9.002;2023-02-22T02:34:25;10.30;;;9.30;;
211;SDS011;16228;48.800;9.002;2023-02-22T02:36:59;13.17;;;11.87;;
211;SDS011;16228;48.800;9.002;2023-02-22T02:39:34;12.67;;;11.10;;
211;SDS011;16228;48.800;9.002;2023-02-22T02:42:05;13.77;;;12.43;;
211;SDS011;16228;48.800;9.002;2023-02-22T02:44:37;15.30;;;10.00;;
211;SDS011;16228;48.800;9.002;2023-02-22T02:47:09;12.20;;;10.90;;
211;SDS011;16228;48.800;9.002;2023-02-22T02:49:43;13.30;;;11.37;;
211;SDS011;16228;48.800;9.002;2023-02-22T02:52:13;12.17;;;10.03;;
211;SDS011;16228;48.800;9.002;2023-02-22T02:54:44;12.93;;;9.87;;
211;SDS011;16228;48.800;9.002;2023-02-22T02:57:12;12.43;;;10.90;;
211;SDS011;16228;48.800;9.002;2023-02-22T02:59:39;10.83;;;9.83;;
211;SDS011;16228;48.800;9.002;2023-02-22T03:02:10;12.40;;;11.20;;
211;SDS011;16228;48.800;9.002;2023-02-22T03:04:58;13.80;;;10.30;;
211;SDS011;16228;48.800;9.002;2023-02-22T03:07:44;11.53;;;10.40;;
211;SDS011;16228;48.800;9.002;2023-02-22T03:10:23;15.30;;;11.33;;
211;SDS011;16228;48.800;9.002;2023-02-22T03:13:04;14.33;;;11.43;;
211;SDS011;16228;48.800;9.002;2023-02-22T03:15:39;11.90;;;10.73;;
211;SDS011;16228;48.800;9.002;2023-02-22T03:18:17;12.53;;;10.20;;
211;SDS011;16228;48.800;9.002;2023-02-22T03:20:57;10.00;;;8.37;;
211;SDS011;16228;48.800;9.002;2023-02-22T03:23:28;14.23;;;11.10;;
211;SDS011;16228;48.800;9.002;2023-02-22T03:26:02;10.20;;;9.30;;
211;SDS011;16228;48.800;9.002;2023-02-22T03:28:33;12.13;;;10.93;;
211;SDS011;16228;48.800;9.002;2023-02-22T03:31:07;12.30;;;11.20;;
211;SDS011;16228;48.800;9.002;2023-02-22T03:33:39;12.27;;;10.60;;
211;SDS011;16228;48.800;9.002;2023-02-22T03:36:12;11.57;;;10.43;;
211;SDS011;16228;48.800;9.002;2023-02-22T03:38:43;12.33;;;11.07;;
211;SDS011;16228;48.800;9.002;2023-02-22T03:41:12;10.83;;;9.87;;
211;SDS011;16228;48.800;9.002;2023-02-22T03:43:49;13.47;;;11.30;;
211;SDS011;16228;48.800;9.002;2023-02-22T03:46:19;10.87;;;9.80;;
211;SDS011;16228;48.800;9.002;2023-02-22T03:48:49;13.37;;;12.10;;
211;SDS011;16228;48.800;9.002;2023-02-22T03:51:21;10.90;;;9.60;;
211;SDS011;16228;48.800;9.002;2023-02-22T03:53:50;12.33;;;10.23;;
211;SDS011;16228;48.800;9.002;2023-02-22T03:56:19;11.20;;;10.07;;
211;SDS011;16228;48.800;9.002;2023-02-22T03:58:49;12.73;;;11.37;;
211;SDS011;16228;48.800;9.002;2023-02-22T04:01:17;13.27;;;10.77;;
211;SDS011;16228;48.800;9.002;2023-02-22T04:03:48;12.70;;;11.47;;
211;SDS011;16228;48.800;9.002;2023-02-22T04:06:15;13.53;;;11.97;;
211;SDS011;16228;48.800;9.002;2023-02-22T04:08:43;11.80;;;10.57;;
211;SDS011;16228;48.800;9.002;2023-02-22T04:11:10;13.37;;;12.03;;
211;SDS011;16228;48.800;9.002;2023-02-22T04:13:38;12.40;;;11.23;;
211;SDS011;16228;48.800;9.002;2023-02-22T04:16:05;14.13;;;12.93;;
211;SDS011;16228;48.800;9.002;2023-02-22T04:18:32;14.53;;;12.57;;
211;SDS011;16228;48.800;9.002;2023-02-22T04:20:59;12.37;;;11.00;;
211;SDS011;16228;48.800;9.002;2023-02-22T04:23:27;12.13;;;11.00;;
211;SDS011;16228;48.800;9.002;2023-02-22T04:25:55;14.00;;;12.47;;
211;SDS011;16228;48.800;9.002;2023-02-22T04:28:23;17.67;;;12.73;;
211;SDS011;16228;48.800;9.002;2023-02-22T04:30:50;12.43;;;11.23;;
211;SDS011;16228;48.800;9.002;2023-02-22T04:33:17;12.70;;;11.50;;
211;SDS011;16228;48.800;9.002;2023-02-22T04:35:44;11.47;;;10.10;;
211;SDS011;16228;48.800;9.002;2023-02-22T04:38:11;13.90;;;12.40;;
211;SDS011;16228;48.800;9.002;2023-02-22T04:40:39;14.10;;;12.80;;
211;SDS011;16228;48.800;9.002;2023-02-22T04:43:08;12.10;;;11.00;;
211;SDS011;16228;48.800;9.002;2023-02-22T04:45:35;12.93;;;11.63;;
211;SDS011;16228;48.800;9.002;2023-02-22T04:48:02;14.40;;;12.90;;
211;SDS011;16228;48.800;9.002;2023-02-22T04:50:29;14.73;;;13.23;;
211;SDS011;16228;48.800;9.002;2023-02-22T04:52:56;17.07;;;12.50;;
211;SDS011;16228;48.800;9.002;2023-02-22T04:55:24;12.37;;;11.00;;
211;SDS011;16228;48.800;9.002;2023-02-22T04:57:52;11.30;;;10.20;;
211;SDS011;16228;48.800;9.002;2023-02-22T05:00:21;13.83;;;12.47;;
211;SDS011;16228;48.800;9.002;2023-02-22T05:02:48;15.60;;;13.30;;
211;SDS011;16228;48.800;9.002;2023-02-22T05:05:17;15.53;;;13.83;;
211;SDS011;16228;48.800;9.002;2023-02-22T05:07:46;14.30;;;12.03;;
211;SDS011;16228;48.800;9.002;2023-02-22T05:10:13;13.90;;;11.73;;
211;SDS011;16228;48.800;9.002;2023-02-22T05:12:41;11.73;;;10.80;;
211;SDS011;16228;48.800;9.002;2023-02-22T05:15:08;14.57;;;12.73;;
211;SDS011;16228;48.800;9.002;2023-02-22T05:17:37;16.10;;;14.50;;
211;SDS011;16228;48.800;9.002;2023-02-22T05:20:05;17.20;;;14.20;;
211;SDS011;16228;48.800;9.002;2023-02-22T05:22:33;18.27;;;16.47;;
211;SDS011;16228;48.800;9.002;2023-02-22T05:25:01;22.63;;;18.43;;
211;SDS011;16228;48.800;9.002;2023-02-22T05:27:28;21.90;;;19.57;;
211;SDS011;16228;48.800;9.002;2023-02-22T05:29:55;18.63;;;16.73;;
211;SDS011;16228;48.800;9.002;2023-02-22T05:32:23;19.23;;;16.03;;
211;SDS011;16228;48.800;9.002;2023-02-22T05:34:53;13.93;;;11.37;;
211;SDS011;16228;48.800;9.002;2023-02-22T05:37:20;13.93;;;12.47;;
211;SDS011;16228;48.800;9.002;2023-02-22T05:39:47;13.97;;;12.50;;
211;SDS011;16228;48.800;9.002;2023-02-22T05:42:15;18.80;;;12.27;;
211;SDS011;16228;48.800;9.002;2023-02-22T05:44:43;15.27;;;11.83;;
211;SDS011;16228;48.800;9.002;2023-02-22T05:47:10;14.27;;;12.83;;
211;SDS011;16228;48.800;9.002;2023-02-22T05:49:38;13.60;;;10.83;;
211;SDS011;16228;48.800;9.002;2023-02-22T05:52:06;12.60;;;10.43;;
211;SDS011;16228;48.800;9.002;2023-02-22T05:54:33;12.00;;;10.13;;
211;SDS011;16228;48.800;9.002;2023-02-22T05:57:00;15.93;;;12.87;;
211;SDS011;16228;48.800;9.002;2023-02-22T05:59:27;13.93;;;11.27;;
211;SDS011;16228;48.800;9.002;2023-02-22T06:01:55;12.73;;;10.37;;
211;SDS011;16228;48.800;9.002;2023-02-22T06:04:22;14.97;;;12.50;;
211;SDS011;16228;48.800;9.002;2023-02-22T06:06:49;10.77;;;9.67;;
211;SDS011;16228;48.800;9.002;2023-02-22T06:09:18;13.33;;;11.93;;
211;SDS011;16228;48.800;9.002;2023-02-22T06:11:45;11.00;;;9.00;;
211;SDS011;16228;48.800;9.002;2023-02-22T06:14:12;13.77;;;10.93;;
211;SDS011;16228;48.800;9.002;2023-02-22T06:16:39;12.27;;;10.83;;
211;SDS011;16228;48.800;9.002;2023-02-22T06:19:07;12.50;;;11.03;;
211;SDS011;16228;48.800;9.002;2023-02-22T06:21:34;10.67;;;9.47;;
211;SDS011;16228;48.800;9.002;2023-02-22T06:24:01;12.17;;;9.97;;
211;SDS011;16228;48.800;9.002;2023-02-22T06:26:30;14.00;;;10.87;;
211;SDS011;16228;48.800;9.002;2023-02-22T06:28:58;12.77;;;10.07;;
211;SDS011;16228;48.800;9.002;2023-02-22T06:31:25;11.77;;;10.57;;
211;SDS011;16228;48.800;9.002;2023-02-22T06:33:52;11.87;;;10.27;;
211;SDS011;16228;48.800;9.002;2023-02-22T06:36:19;11.40;;;10.30;;
211;SDS011;16228;48.800;9.002;2023-02-22T06:38:46;12.10;;;10.90;;
211;SDS011;16228;48.800;9.002;2023-02-22T06:41:13;11.67;;;9.33;;
211;SDS011;16228;48.800;9.002;2023-02-22T06:43:42;13.07;;;11.17;;
211;SDS011;16228;48.800;9.002;2023-02-22T06:46:09;11.97;;;10.70;;
211;SDS011;16228;48.800;9.002;2023-02-22T06:48:37;12.33;;;10.73;;
211;SDS011;16228;48.800;9.002;2023-02-22T06:51:06;11.03;;;9.57;;
211;SDS011;16228;48.800;9.002;2023-02-22T06:53:34;14.23;;;10.97;;
211;SDS011;16228;48.800;9.002;2023-02-22T06:56:01;11.73;;;10.53;;
211;SDS011;16228;48.800;9.002;2023-02-22T06:58:29;14.80;;;9.63;;
211;SDS011;16228;48.800;9.002;2023-02-22T07:00:58;10.63;;;9.53;;
211;SDS011;16228;48.800;9.002;2023-02-22T07:03:27;14.87;;;11.40;;
211;SDS011;16228;48.800;9.002;2023-02-22T07:05:54;13.10;;;11.67;;
211;SDS011;16228;48.800;9.002;2023-02-22T07:08:21;11.60;;;10.17;;
211;SDS011;16228;48.800;9.002;2023-02-22T07:10:48;13.37;;;11.97;;
211;SDS011;16228;48.800;9.002;2023-02-22T07:13:16;11.40;;;10.23;;
211;SDS011;16228;48.800;9.002;2023-02-22T07:15:43;15.67;;;13.33;;
211;SDS011;16228;48.800;9.002;2023-02-22T07:18:12;15.53;;;11.67;;
211;SDS011;16228;48.800;9.002;2023-02-22T07:20:40;13.87;;;10.80;;
211;SDS011;16228;48.800;9.002;2023-02-22T07:23:07;12.60;;;11.23;;
211;SDS011;16228;48.800;9.002;2023-02-22T07:25:35;12.40;;;11.00;;
211;SDS011;16228;48.800;9.002;2023-02-22T07:28:02;12.10;;;10.17;;
211;SDS011;16228;48.800;9.002;2023-02-22T07:30:30;10.40;;;9.13;;
211;SDS011;16228;48.800;9.002;2023-02-22T07:32:59;10.13;;;8.57;;
211;SDS011;16228;48.800;9.002;2023-02-22T07:35:29;10.90;;;8.93;;
211;SDS011;16228;48.800;9.002;2023-02-22T07:37:57;13.20;;;7.83;;
211;SDS011;16228;48.800;9.002;2023-02-22T07:40:25;11.13;;;7.17;;
211;SDS011;16228;48.800;9.002;2023-02-22T07:42:53;9.33;;;7.27;;
211;SDS011;16228;48.800;9.002;2023-02-22T07:45:24;10.93;;;7.03;;
211;SDS011;16228;48.800;9.002;2023-02-22T07:47:52;12.53;;;7.07;;
211;SDS011;16228;48.800;9.002;2023-02-22T07:50:20;9.50;;;7.07;;
211;SDS011;16228;48.800;9.002;2023-02-22T07:52:50;10.03;;;6.33;;
211;SDS011;16228;48.800;9.002;2023-02-22T07:55:19;9.20;;;6.93;;
211;SDS011;16228;48.800;9.002;2023-02-22T07:57:48;8.47;;;6.50;;
211;SDS011;16228;48.800;9.002;2023-02-22T08:00:21;10.27;;;6.60;;
211;SDS011;16228;48.800;9.002;2023-02-22T08:02:49;8.77;;;6.67;;
211;SDS011;16228;48.800;9.002;2023-02-22T08:05:17;11.87;;;6.60;;
211;SDS011;16228;48.800;9.002;2023-02-22T08:07:45;11.63;;;6.03;;
211;SDS011;16228;48.800;9.002;2023-02-22T08:10:14;8.87;;;5.07;;
211;SDS011;16228;48.800;9.002;2023-02-22T08:12:44;9.23;;;6.10;;
211;SDS011;16228;48.800;9.002;2023-02-22T08:15:14;9.50;;;5.73;;
211;SDS011;16228;48.800;9.002;2023-02-22T08:17:43;9.33;;;6.47;;
211;SDS011;16228;48.800;9.002;2023-02-22T08:20:10;10.13;;;6.20;;
211;SDS011;16228;48.800;9.002;2023-02-22T08:22:37;9.63;;;6.17;;
211;SDS011;16228;48.800;9.002;2023-02-22T08:25:05;9.57;;;5.90;;
211;SDS011;16228;48.800;9.002;2023-02-22T08:27:34;9.50;;;5.50;;
211;SDS011;16228;48.800;9.002;2023-02-22T08:30:02;7.60;;;4.93;;
211;SDS011;16228;48.800;9.002;2023-02-22T08:32:30;8.50;;;5.50;;
211;SDS011;16228;48.800;9.002;2023-02-22T08:34:57;7.73;;;4.43;;
211;SDS011;16228;48.800;9.002;2023-02-22T08:37:25;8.13;;;5.53;;
211;SDS011;16228;48.800;9.002;2023-02-22T08:39:55;8.57;;;4.77;;
211;SDS011;16228;48.800;9.002;2023-02-22T08:42:22;5.47;;;4.33;;
211;SDS011;16228;48.800;9.002;2023-02-22T08:44:51;7.27;;;4.67;;
211;SDS011;16228;48.800;9.002;2023-02-22T08:47:18;8.90;;;5.30;;
211;SDS011;16228;48.800;9.002;2023-02-22T08:49:45;10.23;;;5.00;;
211;SDS011;16228;48.800;9.002;2023-02-22T08:52:12;11.73;;;5.37;;
211;SDS011;16228;48.800;9.002;2023-02-22T08:54:39;8.57;;;5.27;;
211;SDS011;16228;48.800;9.002;2023-02-22T08:57:06;7.10;;;5.00;;
211;SDS011;16228;48.800;9.002;2023-02-22T08:59:34;6.37;;;4.43;;
211;SDS011;16228;48.800;9.002;2023-02-22T09:02:02;10.87;;;4.67;;
211;SDS011;16228;48.800;9.002;2023-02-22T09:04:29;6.57;;;4.77;;
211;SDS011;16228;48.800;9.002;2023-02-22T09:06:56;6.77;;;4.27;;
211;SDS011;16228;48.800;9.002;2023-02-22T09:09:24;7.80;;;4.73;;
211;SDS011;16228;48.800;9.002;2023-02-22T09:11:51;8.30;;;4.53;;
211;SDS011;16228;48.800;9.002;2023-02-22T09:14:18;7.63;;;4.37;;
211;SDS011;16228;48.800;9.002;2023-02-22T09:16:45;6.27;;;4.17;;
211;SDS011;16228;48.800;9.002;2023-02-22T09:19:14;6.33;;;4.33;;
211;SDS011;16228;48.800;9.002;2023-02-22T09:21:41;6.00;;;4.73;;
211;SDS011;16228;48.800;9.002;2023-02-22T09:24:08;6.00;;;4.40;;
211;SDS011;16228;48.800;9.002;2023-02-22T09:26:36;6.73;;;4.77;;
211;SDS011;16228;48.800;9.002;2023-02-22T09:29:04;5.60;;;4.57;;
211;SDS011;16228;48.800;9.002;2023-02-22T09:31:34;5.50;;;4.43;;
211;SDS011;16228;48.800;9.002;2023-02-22T09:34:02;6.57;;;4.53;;
211;SDS011;16228;48.800;9.002;2023-02-22T09:36:32;5.80;;;4.23;;
211;SDS011;16228;48.800;9.002;2023-02-22T09:38:59;8.70;;;4.30;;
211;SDS011;16228;48.800;9.002;2023-02-22T09:41:27;7.67;;;4.00;;
211;SDS011;16228;48.800;9.002;2023-02-22T09:44:04;5.77;;;3.30;;
211;SDS011;16228;48.800;9.002;2023-02-22T09:46:41;9.43;;;3.60;;
211;SDS011;16228;48.800;9.002;2023-02-22T09:49:15;8.60;;;4.10;;
211;SDS011;16228;48.800;9.002;2023-02-22T09:51:49;6.93;;;3.50;;
211;SDS011;16228;48.800;9.002;2023-02-22T09:54:21;9.53;;;4.10;;
211;SDS011;16228;48.800;9.002;2023-02-22T09:56:52;4.43;;;3.10;;
211;SDS011;16228;48.800;9.002;2023-02-22T09:59:24;6.63;;;4.33;;
211;SDS011;16228;48.800;9.002;2023-02-22T10:01:57;7.80;;;4.23;;
211;SDS011;16228;48.800;9.002;2023-02-22T10:04:41;7.47;;;4.70;;
211;SDS011;16228;48.800;9.002;2023-02-22T10:07:17;5.80;;;4.17;;
211;SDS011;16228;48.800;9.002;2023-02-22T10:09:50;4.40;;;3.77;;
211;SDS011;16228;48.800;9.002;2023-02-22T10:12:28;6.43;;;4.20;;
211;SDS011;16228;48.800;9.002;2023-02-22T10:15:04;6.70;;;4.30;;
211;SDS011;16228;48.800;9.002;2023-02-22T10:17:46;5.67;;;4.40;;
211;SDS011;16228;48.800;9.002;2023-02-22T10:20:22;8.33;;;4.53;;
211;SDS011;16228;48.800;9.002;2023-02-22T10:23:10;5.90;;;5.30;;
211;SDS011;16228;48.800;9.002;2023-02-22T10:25:47;6.90;;;5.33;;
211;SDS011;16228;48.800;9.002;2023-02-22T10:28:19;5.20;;;4.00;;
211;SDS011;16228;48.800;9.002;2023-02-22T10:30:50;6.03;;;4.63;;
211;SDS011;16228;48.800;9.002;2023-02-22T10:33:21;6.07;;;4.67;;
211;SDS011;16228;48.800;9.002;2023-02-22T10:35:51;6.93;;;5.07;;
211;SDS011;16228;48.800;9.002;2023-02-22T10:38:21;7.43;;;4.70;;
211;SDS011;16228;48.800;9.002;2023-02-22T10:40:52;9.07;;;5.10;;
211;SDS011;16228;48.800;9.002;2023-02-22T10:43:22;8.20;;;5.10;;
211;SDS011;16228;48.800;9.002;2023-02-22T10:45:50;4.97;;;4.43;;
211;SDS011;16228;48.800;9.002;2023-02-22T10:48:20;9.30;;;5.43;;
211;SDS011;16228;48.800;9.002;2023-02-22T10:50:50;5.43;;;4.83;;
211;SDS011;16228;48.800;9.002;2023-02-22T10:53:21;8.50;;;5.00;;
211;SDS011;16228;48.800;9.002;2023-02-22T10:56:04;6.90;;;5.07;;
211;SDS011;16228;48.800;9.002;2023-02-22T10:58:43;8.33;;;4.87;;
211;SDS011;16228;48.800;9.002;2023-02-22T11:01:16;6.73;;;4.97;;
211;SDS011;16228;48.800;9.002;2023-02-22T11:03:54;7.57;;;4.60;;
211;SDS011;16228;48.800;9.002;2023-02-22T11:06:22;7.17;;;5.20;;
211;SDS011;16228;48.800;9.002;2023-02-22T11:08:51;10.07;;;5.67;;
211;SDS011;16228;48.800;9.002;2023-02-22T11:11:30;7.80;;;5.37;;
211;SDS011;16228;48.800;9.002;2023-02-22T11:13:58;7.37;;;5.03;;
211;SDS011;16228;48.800;9.002;2023-02-22T11:16:27;7.37;;;5.53;;
211;SDS011;16228;48.800;9.002;2023-02-22T11:19:01;6.80;;;5.10;;
211;SDS011;16228;48.800;9.002;2023-02-22T11:21:33;12.33;;;7.70;;
211;SDS011;16228;48.800;9.002;2023-02-22T11:24:02;8.67;;;6.73;;
211;SDS011;16228;48.800;9.002;2023-02-22T11:26:38;7.93;;;7.00;;
211;SDS011;16228;48.800;9.002;2023-02-22T11:29:12;7.07;;;6.07;;
211;SDS011;16228;48.800;9.002;2023-02-22T11:31:45;7.40;;;6.47;;
211;SDS011;16228;48.800;9.002;2023-02-22T11:34:30;11.77;;;7.03;;
211;SDS011;16228;48.800;9.002;2023-02-22T11:37:17;7.70;;;6.47;;
211;SDS011;16228;48.800;9.002;2023-02-22T11:40:07;12.73;;;8.50;;
211;SDS011;16228;48.800;9.002;2023-02-22T11:42:42;7.97;;;6.70;;
211;SDS011;16228;48.800;9.002;2023-02-22T11:45:10;8.87;;;7.63;;
211;SDS011;16228;48.800;9.002;2023-02-22T11:47:45;8.00;;;7.20;;
211;SDS011;16228;48.800;9.002;2023-02-22T11:50:20;8.97;;;7.03;;
211;SDS011;16228;48.800;9.002;2023-02-22T11:52:54;8.97;;;6.77;;
211;SDS011;16228;48.800;9.002;2023-02-22T11:55:43;8.40;;;7.27;;
211;SDS011;16228;48.800;9.002;2023-02-22T11:58:25;9.23;;;6.90;;
211;SDS011;16228;48.800;9.002;2023-02-22T12:01:01;9.97;;;8.17;;
211;SDS011;16228;48.800;9.002;2023-02-22T12:03:37;9.43;;;7.60;;
211;SDS011;16228;48.800;9.002;2023-02-22T12:06:18;10.53;;;7.40;;
211;SDS011;16228;48.800;9.002;2023-02-22T12:08:57;10.23;;;7.57;;
211;SDS011;16228;48.800;9.002;2023-02-22T12:11:34;11.73;;;7.73;;
211;SDS011;16228;48.800;9.002;2023-02-22T12:14:14;15.47;;;8.10;;
211;SDS011;16228;48.800;9.002;2023-02-22T12:17:00;14.20;;;7.40;;
211;SDS011;16228;48.800;9.002;2023-02-22T12:19:35;11.63;;;8.30;;
211;SDS011;16228;48.800;9.002;2023-02-22T12:22:06;11.03;;;8.03;;
211;SDS011;16228;48.800;9.002;2023-02-22T12:24:39;13.57;;;9.00;;
211;SDS011;16228;48.800;9.002;2023-02-22T12:27:12;11.43;;;7.53;;
211;SDS011;16228;48.800;9.002;2023-02-22T12:29:45;18.83;;;9.07;;
211;SDS011;16228;48.800;9.002;2023-02-22T12:32:26;14.60;;;8.67;;
211;SDS011;16228;48.800;9.002;2023-02-22T12:34:58;10.20;;;8.50;;
211;SDS011;16228;48.800;9.002;2023-02-22T12:37:31;17.23;;;10.57;;
211;SDS011;16228;48.800;9.002;2023-02-22T12:40:11;10.93;;;8.30;;
211;SDS011;16228;48.800;9.002;2023-02-22T12:42:52;13.67;;;8.77;;
211;SDS011;16228;48.800;9.002;2023-02-22T12:45:27;11.63;;;9.13;;
211;SDS011;16228;48.800;9.002;2023-02-22T12:48:07;10.87;;;8.73;;
211;SDS011;16228;48.800;9.002;2023-02-22T12:50:46;9.23;;;8.33;;
211;SDS011;16228;48.800;9.002;2023-02-22T12:53:20;12.00;;;8.73;;
211;SDS011;16228;48.800;9.002;2023-02-22T12:55:53;11.47;;;8.57;;
211;SDS011;16228;48.800;9.002;2023-02-22T12:58:26;10.87;;;8.47;;
211;SDS011;16228;48.800;9.002;2023-02-22T13:00:58;10.77;;;8.37;;
211;SDS011;16228;48.800;9.002;2023-02-22T13:03:30;12.00;;;8.77;;
211;SDS011;16228;48.800;9.002;2023-02-22T13:06:06;9.13;;;7.23;;
211;SDS011;16228;48.800;9.002;2023-02-22T13:08:57;8.30;;;7.50;;
211;SDS011;16228;48.800;9.002;2023-02-22T13:11:37;10.20;;;8.20;;
211;SDS011;16228;48.800;9.002;2023-02-22T13:14:15;8.57;;;7.53;;
211;SDS011;16228;48.800;9.002;2023-02-22T13:17:04;10.37;;;8.07;;
211;SDS011;16228;48.800;9.002;2023-02-22T13:19:47;10.63;;;7.70;;
211;SDS011;16228;48.800;9.002;2023-02-22T13:22:18;11.17;;;8.07;;
211;SDS011;16228;48.800;9.002;2023-02-22T13:24:54;11.53;;;8.03;;
211;SDS011;16228;48.800;9.002;2023-02-22T13:27:27;8.70;;;7.53;;
211;SDS011;16228;48.800;9.002;2023-02-22T13:30:00;10.93;;;8.73;;
211;SDS011;16228;48.800;9.002;2023-02-22T13:32:33;8.73;;;7.83;;
211;SDS011;16228;48.800;9.002;2023-02-22T13:35:14;9.90;;;8.73;;
211;SDS011;16228;48.800;9.002;2023-02-22T13:38:00;11.03;;;8.03;;
211;SDS011;16228;48.800;9.002;2023-02-22T13:44:02;10.50;;;7.77;;
211;SDS011;16228;48.800;9.002;2023-02-22T13:46:57;9.83;;;8.83;;
211;SDS011;16228;48.800;9.002;2023-02-22T13:49:53;9.07;;;8.17;;
211;SDS011;16228;48.800;9.002;2023-02-22T13:52:38;9.73;;;8.53;;
211;SDS011;16228;48.800;9.002;2023-02-22T13:55:07;8.77;;;7.90;;
211;SDS011;16228;48.800;9.002;2023-02-22T13:57:42;11.67;;;8.53;;
211;SDS011;16228;48.800;9.002;2023-02-22T14:00:23;11.60;;;8.23;;
211;SDS011;16228;48.800;9.002;2023-02-22T14:03:17;13.57;;;7.83;;
211;SDS011;16228;48.800;9.002;2023-02-22T14:06:09;9.77;;;8.40;;
211;SDS011;16228;48.800;9.002;2023-02-22T14:08:56;10.20;;;8.30;;
211;SDS011;16228;48.800;9.002;2023-02-22T14:14:21;11.83;;;8.80;;
211;SDS011;16228;48.800;9.002;2023-02-22T14:20:17;10.13;;;8.20;;
211;SDS011;16228;48.800;9.002;2023-02-22T14:22:54;8.83;;;7.73;;
211;SDS011;16228;48.800;9.002;2023-02-22T14:25:29;10.03;;;7.20;;
211;SDS011;16228;48.800;9.002;2023-02-22T14:27:59;11.97;;;7.73;;
211;SDS011;16228;48.800;9.002;2023-02-22T14:30:28;11.77;;;8.40;;
211;SDS011;16228;48.800;9.002;2023-02-22T14:32:58;9.47;;;7.03;;
211;SDS011;16228;48.800;9.002;2023-02-22T14:35:28;8.87;;;7.23;;
211;SDS011;16228;48.800;9.002;2023-02-22T14:38:02;10.67;;;7.93;;
211;SDS011;16228;48.800;9.002;2023-02-22T14:40:33;13.43;;;8.23;;
211;SDS011;16228;48.800;9.002;2023-02-22T14:43:03;10.93;;;8.70;;
211;SDS011;16228;48.800;9.002;2023-02-22T14:45:38;7.97;;;7.17;;
211;SDS011;16228;48.800;9.002;2023-02-22T14:48:12;12.23;;;8.77;;
211;SDS011;16228;48.800;9.002;2023-02-22T14:50:49;10.63;;;6.63;;
211;SDS011;16228;48.800;9.002;2023-02-22T14:53:22;8.17;;;6.90;;
211;SDS011;16228;48.800;9.002;2023-02-22T14:55:54;8.73;;;7.43;;
211;SDS011;16228;48.800;9.002;2023-02-22T14:58:28;7.93;;;6.03;;
211;SDS011;16228;48.800;9.002;2023-02-22T15:01:14;8.77;;;6.60;;
211;SDS011;16228;48.800;9.002;2023-02-22T15:03:48;9.17;;;7.03;;
211;SDS011;16228;48.800;9.002;2023-02-22T15:06:17;7.70;;;5.83;;
211;SDS011;16228;48.800;9.002;2023-02-22T15:08:46;9.43;;;6.83;;
211;SDS011;16228;48.800;9.002;2023-02-22T15:11:22;10.83;;;7.83;;
211;SDS011;16228;48.800;9.002;2023-02-22T15:13:51;8.93;;;6.43;;
211;SDS011;16228;48.800;9.002;2023-02-22T15:16:19;10.10;;;7.10;;
211;SDS011;16228;48.800;9.002;2023-02-22T15:18:48;9.33;;;7.03;;
211;SDS011;16228;48.800;9.002;2023-02-22T15:21:22;8.80;;;6.23;;
211;SDS011;16228;48.800;9.002;2023-02-22T15:23:52;9.43;;;7.13;;
211;SDS011;16228;48.800;9.002;2023-02-22T15:26:22;10.53;;;7.67;;
211;SDS011;16228;48.800;9.002;2023-02-22T15:28:53;12.23;;;6.90;;
211;SDS011;16228;48.800;9.002;2023-02-22T15:31:23;11.00;;;7.67;;
211;SDS011;16228;48.800;9.002;2023-02-22T15:33:52;10.67;;;7.90;;
211;SDS011;16228;48.800;9.002;2023-02-22T15:36:24;9.03;;;7.10;;